Terminal Aerodrome Forecast
Issued by NWS

Home | Current Version | Previous Version | Text Only | Print | Product List | Glossary On
Versions: 1 2 3 4 5 6 7 8 9 10 11 12 13 14 15 16
000
FTUS43 KGRB 211200 AAA
TAFCWA
TAF AMD
KCWA 211238Z 2113/2212 08003KT 2SM BR SCT002 BKN070
      TEMPO 2113/2114 1/2SM -SHRA FG VV002
     FM211400 21006KT 4SM BR VCSH BKN035 OVC070
      TEMPO 2116/2119 2SM TSRA BR BKN020CB
     FM211900 31012KT P6SM SCT020 BKN035
     FM212300 31013G21KT P6SM SCT025=

USA.gov is the U.S. government's official web portal to all federal, state and local government web resources and services.